Home   Weather   Australia   Samford   Past weeks
Flag for Australia

Past Weather in Samford, Queensland, Australia — Yesterday and Last 2 Weeks

Currently: 68 °F. Clear. (Weather station: Brisbane Airport M. O, Australia). See more current weather

Past Weather in Samford — Graph

°F

Samford Temperature Yesterday

Maximum temperature yesterday: 73 °F (at 10:30 am)
Minimum temperature yesterday: 57 °F (at 6:00 am)
Average temperature yesterday: 67 °F

High & Low Weather Summary for the Past Weeks

 TemperatureHumidityPressure
High90 °F (Apr 10, 3:00 pm)100% (Apr 4, 7:30 am)30.18 "Hg (Apr 4, 7:30 am)
Low52 °F (Apr 12, 4:00 am)31% (Apr 10, 3:30 pm)29.65 "Hg (Apr 9, 3:00 pm)
Average70 °F76%29.97 "Hg
* Reported Mar 30 5:00 pm — Apr 14 5:30 pm, Samford. Weather by CustomWeather, © 2021

Note: Actual official high and low records may vary slightly from our data, if they occured in-between our weather recording intervals... More about our weather records

Samford Weather History for the Previous 24 Hours

Scroll right to see more
 ConditionsComfort  
Time TempWeatherWind HumidityBarometerVisibility
5:30 pm
Wed, Apr 14
70 °FSunny.7 mph69%30.04 "Hg10 mi
5:00 pm72 °FSunny.9 mph61%30.01 "Hg10 mi
4:30 pm73 °FSunny.9 mph57%30.01 "Hg10 mi
4:00 pm73 °FPassing clouds.10 mph57%30.01 "HgN/A
3:30 pm73 °FPassing clouds.10 mph57%30.01 "HgN/A
3:00 pm75 °FPassing clouds.10 mph54%30.01 "HgN/A
2:30 pm75 °FSunny.10 mph54%30.04 "Hg10 mi
2:00 pm75 °FSunny.9 mph54%30.04 "Hg10 mi
1:30 pm75 °FPassing clouds.9 mph54%30.04 "HgN/A
1:00 pm77 °FPassing clouds.9 mph51%30.04 "HgN/A
12:30 pm75 °FPassing clouds.9 mph54%30.07 "HgN/A
12:00 pm75 °FPassing clouds.8 mph54%30.07 "HgN/A
11:30 am73 °FPassing clouds.7 mph53%30.09 "HgN/A
11:00 am75 °FPassing clouds.6 mph54%30.09 "HgN/A
10:30 am73 °FPassing clouds.7 mph53%30.12 "HgN/A
10:00 am72 °FPassing clouds.8 mph57%30.12 "HgN/A
9:30 am70 °FPassing clouds.10 mph64%30.12 "HgN/A
9:00 am68 °FPassing clouds.9 mph64%30.12 "HgN/A
8:30 am66 °FPassing clouds.9 mph73%30.12 "HgN/A
8:00 am64 °FPassing clouds.12 mph73%30.12 "HgN/A
7:30 am61 °FSunny.9 mph83%30.12 "Hg10 mi
7:00 am59 °FSunny.8 mph88%30.09 "Hg10 mi
6:30 am57 °FSunny.9 mph88%30.09 "Hg10 mi
6:00 am57 °FPassing clouds.9 mph88%30.09 "HgN/A
5:30 am57 °FPassing clouds.8 mph88%30.09 "HgN/A
5:00 am57 °FPassing clouds.9 mph88%30.09 "HgN/A
4:30 am55 °FPassing clouds.9 mph88%30.09 "HgN/A
4:00 am55 °FPassing clouds.7 mph94%30.09 "HgN/A
3:30 am59 °FPassing clouds.8 mph82%30.09 "HgN/A
3:00 am59 °FPassing clouds.8 mph88%30.09 "HgN/A
2:30 am57 °FPassing clouds.9 mph88%30.09 "HgN/A
2:00 am57 °FPassing clouds.8 mph88%30.12 "HgN/A
1:30 am59 °FPassing clouds.8 mph88%30.12 "HgN/A
1:00 am59 °FPassing clouds.7 mph88%30.12 "HgN/A
12:30 am59 °FPassing clouds.6 mph88%30.12 "HgN/A
12:00 am61 °FPassing clouds.6 mph83%30.15 "HgN/A
11:30 pm
Tue, Apr 13
59 °FPassing clouds.6 mph88%30.15 "HgN/A
11:00 pm61 °FPassing clouds.6 mph83%30.12 "HgN/A
10:30 pm61 °FPassing clouds.5 mph83%30.15 "HgN/A
10:00 pm63 °FPassing clouds.1 mph77%30.15 "HgN/A
9:30 pm63 °FPassing clouds.No wind77%30.15 "HgN/A
9:00 pm63 °FPassing clouds.5 mph77%30.15 "HgN/A
8:30 pm64 °FPassing clouds.5 mph73%30.12 "HgN/A
8:00 pm68 °FPassing clouds.5 mph64%30.12 "HgN/A
7:30 pm68 °FPassing clouds.6 mph64%30.12 "HgN/A
6:30 pm68 °FPassing clouds.6 mph64%30.09 "HgN/A
6:00 pm68 °FPassing clouds.7 mph64%30.09 "HgN/A
Weather by CustomWeather, © 2021

See weather overview